This is the latest recevied weather packets stored in our database for station/object SP8AQK-13. If no packets are shown the sender has not sent any weather packets the latest 10 day(s).
| Time | Temp. | Humidity | Pressure | Rain* | Wind** | Luminosity | Snow |
|---|---|---|---|---|---|---|---|
| 1778171029 | 17.78° C | 93% | 1012.9 hPa | - | - | - | - |
| 1778169829 | 18.33° C | 94% | 1012.8 hPa | - | - | - | - |
| 1778168628 | 18.89° C | 95% | 1012.6 hPa | - | - | - | - |
| 1778167427 | 20.56° C | 64% | 1012.4 hPa | - | - | - | - |
| 1778166227 | 22.22° C | 55% | 1011.8 hPa | - | - | - | - |
| 1778165026 | 22.22° C | 53% | 1011.5 hPa | - | - | - | - |
| 1778163825 | 22.78° C | 51% | 1011.6 hPa | - | - | - | - |
| 1778162624 | 23.33° C | 49% | 1011.5 hPa | - | - | - | - |
| 1778161424 | 22.78° C | 49% | 1011.4 hPa | - | - | - | - |
| 1778160223 | 23.33° C | 48% | 1011.3 hPa | - | - | - | - |
| 1778159022 | 23.33° C | 50% | 1011.5 hPa | - | - | - | - |
| 1778157821 | 22.78° C | 50% | 1011.3 hPa | - | - | - | - |
| 1778156621 | 23.33° C | 48% | 1011.4 hPa | - | - | - | - |
| 1778155420 | 23.33° C | 48% | 1011.5 hPa | - | - | - | - |
| 1778154220 | 23.33° C | 48% | 1011.7 hPa | - | - | - | - |
| 1778153018 | 23.33° C | 47% | 1011.7 hPa | - | - | - | - |
| 1778151818 | 22.78° C | 48% | 1011.6 hPa | - | - | - | - |
| 1778150617 | 23.89° C | 47% | 1011.7 hPa | - | - | - | - |
| 1778149416 | 23.33° C | 47% | 1011.5 hPa | - | - | - | - |
| 1778148216 | 22.78° C | 47% | 1011.6 hPa | - | - | - | - |
| 1778147015 | 23.33° C | 49% | 1011.3 hPa | - | - | - | - |
| 1778145814 | 22.78° C | 53% | 1011.3 hPa | - | - | - | - |
| 1778144613 | 22.22° C | 59% | 1011.4 hPa | - | - | - | - |
| 1778143413 | 21.11° C | 66% | 1011.2 hPa | - | - | - | - |
| 1778142212 | 20° C | 71% | 1011.3 hPa | - | - | - | - |
* Rain since midnight (hover to see other rain measurements)
** Current wind speed in m/s (hover to see current wind gust speed)